Time;durP1;ratioP1;P1;durP2;ratioP2;P2;SDS_P1;SDS_P2;PMS_P1;PMS_P2;Temp;Humidity;BMP_temperature;BMP_pressure;BME280_temperature;BME280_humidity;BME280_pressure;Samples;Min_cycle;Max_cycle;Signal;HPM_P1;HPM_P2
2023/12/23 00:01:17;;;;;;;0.87;0.87;;;5.90;99.90;;;;;;5037011;28;20187;-57
2023/12/23 00:03:43;;;;;;;1.50;0.90;;;5.90;99.90;;;;;;5038680;28;20191;-58
2023/12/23 00:06:10;;;;;;;0.97;0.90;;;5.90;99.90;;;;;;5029719;28;20300;-58
2023/12/23 00:08:35;;;;;;;0.90;0.90;;;5.90;99.90;;;;;;5036714;28;20226;-58
2023/12/23 00:11:01;;;;;;;0.93;0.87;;;5.90;99.90;;;;;;5032867;28;20498;-57
2023/12/23 00:13:27;;;;;;;0.80;0.70;;;5.90;99.90;;;;;;5041153;28;20211;-57
2023/12/23 00:15:52;;;;;;;1.47;0.80;;;5.90;99.90;;;;;;5035776;28;20196;-58
2023/12/23 00:18:18;;;;;;;0.70;0.70;;;5.90;99.90;;;;;;5032676;28;20176;-58
2023/12/23 00:20:43;;;;;;;0.70;0.70;;;5.90;99.90;;;;;;5042116;28;20179;-58
2023/12/23 00:23:11;;;;;;;0.80;0.70;;;5.90;99.90;;;;;;5033449;28;20195;-57
2023/12/23 00:25:36;;;;;;;0.70;0.70;;;5.90;99.90;;;;;;5037087;28;20172;-58
2023/12/23 00:28:03;;;;;;;0.70;0.70;;;5.90;99.90;;;;;;5041644;28;20464;-58
2023/12/23 00:30:28;;;;;;;1.10;1.00;;;5.80;99.90;;;;;;5029798;28;20231;-58
2023/12/23 00:32:54;;;;;;;0.70;0.70;;;5.80;99.90;;;;;;5035187;28;20463;-58
2023/12/23 00:35:20;;;;;;;1.93;0.90;;;5.90;99.90;;;;;;5038722;28;20890;-58
2023/12/23 00:37:45;;;;;;;1.27;0.70;;;5.80;99.90;;;;;;5036665;28;20199;-57
2023/12/23 00:40:11;;;;;;;0.87;0.87;;;5.90;99.90;;;;;;5036853;28;20433;-58
2023/12/23 00:42:37;;;;;;;0.60;0.60;;;5.90;99.90;;;;;;5029067;28;20179;-58
2023/12/23 00:45:04;;;;;;;0.80;0.80;;;5.90;99.90;;;;;;5032469;28;20180;-58
2023/12/23 00:47:29;;;;;;;0.70;0.70;;;5.80;99.90;;;;;;5042669;28;20207;-58
2023/12/23 00:49:55;;;;;;;1.00;0.80;;;5.80;99.90;;;;;;5036077;28;20466;-58
2023/12/23 00:52:20;;;;;;;0.80;0.80;;;5.80;99.90;;;;;;5034643;28;20179;-57
2023/12/23 00:54:46;;;;;;;0.70;0.70;;;5.80;99.90;;;;;;5033972;28;21074;-57
2023/12/23 00:57:12;;;;;;;0.90;0.70;;;5.80;99.90;;;;;;5029344;28;20192;-57
2023/12/23 00:59:38;;;;;;;0.80;0.80;;;5.80;99.90;;;;;;5036620;28;20207;-57
2023/12/23 01:02:03;;;;;;;1.03;0.83;;;5.80;99.90;;;;;;5038403;28;20171;-58
2023/12/23 01:04:29;;;;;;;0.70;0.70;;;5.80;99.90;;;;;;5036633;28;20509;-58
2023/12/23 01:06:55;;;;;;;0.77;0.70;;;5.80;99.90;;;;;;5040317;28;20230;-57
2023/12/23 01:09:20;;;;;;;0.70;0.70;;;5.80;99.90;;;;;;5036712;28;20176;-57
2023/12/23 01:11:46;;;;;;;1.07;0.70;;;5.80;99.90;;;;;;5033297;28;20212;-57
2023/12/23 01:14:11;;;;;;;3.33;0.73;;;5.80;99.90;;;;;;5036063;28;20176;-57
2023/12/23 01:16:37;;;;;;;0.70;0.70;;;5.80;99.90;;;;;;5033974;28;20204;-58
2023/12/23 01:19:03;;;;;;;0.70;0.70;;;5.80;99.90;;;;;;5034130;28;20641;-58
2023/12/23 01:21:29;;;;;;;1.00;0.70;;;5.80;99.90;;;;;;5039691;28;20207;-57
2023/12/23 01:23:54;;;;;;;0.70;0.70;;;5.80;99.90;;;;;;5028288;28;20465;-58
2023/12/23 01:26:20;;;;;;;0.73;0.73;;;5.80;99.90;;;;;;5032198;28;20200;-58
2023/12/23 01:28:45;;;;;;;0.63;0.63;;;5.80;99.90;;;;;;5030046;28;20721;-58
2023/12/23 01:31:11;;;;;;;0.70;0.70;;;5.80;99.90;;;;;;5037150;28;20214;-58
2023/12/23 01:33:37;;;;;;;0.80;0.80;;;5.80;99.90;;;;;;5034128;28;20310;-57
2023/12/23 01:36:05;;;;;;;0.77;0.77;;;5.80;99.90;;;;;;5027189;28;20199;-58
2023/12/23 01:38:34;;;;;;;0.70;0.70;;;5.70;99.90;;;;;;5027984;28;20187;-57
2023/12/23 01:40:59;;;;;;;1.03;0.80;;;5.80;99.90;;;;;;5036211;28;21113;-58
2023/12/23 01:43:25;;;;;;;1.33;0.90;;;5.80;99.90;;;;;;5032677;28;20496;-57
2023/12/23 01:45:56;;;;;;;0.80;0.80;;;5.70;99.90;;;;;;5039241;28;20831;-58
2023/12/23 01:48:22;;;;;;;0.80;0.70;;;5.70;99.90;;;;;;5029463;28;21240;-57
2023/12/23 01:50:50;;;;;;;0.60;0.60;;;5.70;99.90;;;;;;5037746;28;20458;-58
2023/12/23 01:53:17;;;;;;;2.03;0.70;;;5.70;99.90;;;;;;5030171;28;21048;-55
2023/12/23 01:55:43;;;;;;;0.70;0.70;;;5.70;99.90;;;;;;5036297;28;20437;-58
2023/12/23 01:58:09;;;;;;;0.70;0.70;;;5.70;99.90;;;;;;5032591;28;20431;-57
2023/12/23 02:00:35;;;;;;;1.43;0.80;;;5.80;99.90;;;;;;5032604;28;20422;-60
2023/12/23 02:03:01;;;;;;;0.60;0.60;;;5.80;99.90;;;;;;5029493;28;20183;-57
2023/12/23 02:05:26;;;;;;;0.90;0.90;;;5.80;99.90;;;;;;5031103;28;20608;-58
2023/12/23 02:07:53;;;;;;;0.87;0.70;;;5.80;99.90;;;;;;5037443;28;21188;-57
2023/12/23 02:10:19;;;;;;;0.70;0.70;;;5.80;99.90;;;;;;5032832;28;20203;-58
2023/12/23 02:13:13;;;;;;;0.80;0.80;;;5.80;99.90;;;;;;5030940;28;20433;-58
2023/12/23 02:15:43;;;;;;;0.67;0.67;;;5.80;99.90;;;;;;5032254;28;20475;-58
2023/12/23 02:18:09;;;;;;;1.33;0.70;;;5.70;99.90;;;;;;5032992;28;20418;-58
2023/12/23 02:20:35;;;;;;;0.70;0.70;;;5.70;99.90;;;;;;5054374;28;20818;-57
2023/12/23 02:23:00;;;;;;;0.70;0.70;;;5.70;99.90;;;;;;5029954;28;20427;-58
2023/12/23 02:25:26;;;;;;;1.20;0.70;;;5.70;99.90;;;;;;5036506;28;20183;-57
2023/12/23 02:27:58;;;;;;;0.70;0.70;;;5.70;99.90;;;;;;5036007;28;20200;-58
2023/12/23 02:30:25;;;;;;;0.70;0.70;;;5.70;99.90;;;;;;5033514;28;20290;-58
2023/12/23 02:32:51;;;;;;;0.70;0.70;;;5.70;99.90;;;;;;5028514;28;20426;-58
2023/12/23 02:35:17;;;;;;;0.80;0.80;;;5.70;99.90;;;;;;5032468;28;20437;-57
2023/12/23 02:37:42;;;;;;;0.70;0.70;;;5.70;99.90;;;;;;5026602;28;20458;-58
2023/12/23 02:40:08;;;;;;;0.87;0.70;;;5.70;99.90;;;;;;5029242;28;20441;-58
2023/12/23 02:42:34;;;;;;;0.70;0.70;;;5.70;99.90;;;;;;5032653;28;20319;-58
2023/12/23 02:45:00;;;;;;;0.70;0.70;;;5.70;99.90;;;;;;5036445;28;20678;-58
2023/12/23 02:47:25;;;;;;;0.70;0.70;;;5.70;99.90;;;;;;5034794;28;20202;-58
2023/12/23 02:49:51;;;;;;;0.70;0.70;;;5.70;99.90;;;;;;5030702;28;20191;-58
2023/12/23 02:52:16;;;;;;;0.70;0.70;;;5.70;99.90;;;;;;5037123;28;20213;-57
2023/12/23 02:54:42;;;;;;;0.77;0.77;;;5.70;99.90;;;;;;5036124;28;20552;-57
2023/12/23 02:57:08;;;;;;;0.70;0.70;;;5.70;99.90;;;;;;5033218;28;20269;-57
2023/12/23 02:59:33;;;;;;;0.93;0.90;;;5.70;99.90;;;;;;5038000;28;20171;-56
2023/12/23 03:01:59;;;;;;;0.70;0.70;;;5.70;99.90;;;;;;5031558;28;20195;-58
2023/12/23 03:04:24;;;;;;;0.70;0.70;;;5.70;99.90;;;;;;5033151;28;20183;-59
2023/12/23 03:06:50;;;;;;;0.73;0.70;;;5.70;99.90;;;;;;5033215;28;20755;-58
2023/12/23 03:09:16;;;;;;;0.70;0.70;;;5.60;99.90;;;;;;5030200;28;20278;-59
2023/12/23 03:11:41;;;;;;;1.23;1.00;;;5.60;99.90;;;;;;5030256;28;20224;-57
2023/12/23 03:14:07;;;;;;;1.50;1.40;;;5.60;99.90;;;;;;5028837;28;20180;-58
2023/12/23 03:16:35;;;;;;;1.20;1.10;;;5.60;99.90;;;;;;5039331;28;20202;-58
2023/12/23 03:19:02;;;;;;;0.80;0.80;;;5.60;99.90;;;;;;5035792;28;20183;-59
2023/12/23 03:21:28;;;;;;;1.00;0.90;;;5.60;99.90;;;;;;5035726;28;20441;-58
2023/12/23 03:23:54;;;;;;;0.80;0.80;;;5.60;99.90;;;;;;5038980;28;20426;-58
2023/12/23 03:26:19;;;;;;;1.37;0.70;;;5.60;99.90;;;;;;5038480;28;20491;-58
2023/12/23 03:28:45;;;;;;;0.80;0.80;;;5.60;99.90;;;;;;5041349;28;20620;-58
2023/12/23 03:31:10;;;;;;;0.80;0.80;;;5.60;99.90;;;;;;5035865;28;20588;-58
2023/12/23 03:33:36;;;;;;;0.70;0.70;;;5.60;99.90;;;;;;5038508;28;20207;-57
2023/12/23 03:36:02;;;;;;;0.77;0.77;;;5.60;99.90;;;;;;5036601;28;20242;-58
2023/12/23 03:38:28;;;;;;;1.73;0.80;;;5.60;99.90;;;;;;5041612;28;20631;-57
2023/12/23 03:40:53;;;;;;;1.03;0.90;;;5.60;99.90;;;;;;5036396;28;20513;-57
2023/12/23 03:43:19;;;;;;;0.60;0.60;;;5.60;99.90;;;;;;5040614;28;20286;-58
2023/12/23 03:45:45;;;;;;;1.03;0.80;;;5.60;99.90;;;;;;5040411;28;20190;-57
2023/12/23 03:48:11;;;;;;;0.70;0.70;;;5.60;99.90;;;;;;5035983;28;20210;-58
2023/12/23 03:50:36;;;;;;;1.00;0.80;;;5.60;99.90;;;;;;5040109;28;20489;-58
2023/12/23 03:53:02;;;;;;;0.70;0.70;;;5.60;99.90;;;;;;5033256;28;20168;-58
2023/12/23 03:55:31;;;;;;;0.90;0.90;;;5.60;99.90;;;;;;5041150;28;20637;-58
2023/12/23 03:57:57;;;;;;;5.53;0.80;;;5.60;99.90;;;;;;5040365;28;20225;-57
2023/12/23 04:00:22;;;;;;;0.70;0.70;;;5.60;99.90;;;;;;5037314;28;20421;-57
2023/12/23 04:02:48;;;;;;;1.57;0.70;;;5.60;99.90;;;;;;5032686;28;20573;-59
2023/12/23 04:05:15;;;;;;;0.70;0.70;;;5.60;99.90;;;;;;5034452;28;20795;-58
2023/12/23 04:07:41;;;;;;;0.70;0.70;;;5.60;99.90;;;;;;5037498;28;20699;-57
2023/12/23 04:10:07;;;;;;;0.77;0.73;;;5.60;99.90;;;;;;5048322;28;20461;-58
2023/12/23 04:12:32;;;;;;;0.70;0.70;;;5.60;99.90;;;;;;5036180;28;20186;-57
2023/12/23 04:14:58;;;;;;;1.03;0.77;;;5.60;99.90;;;;;;5031802;28;20179;-57
2023/12/23 04:17:23;;;;;;;0.73;0.73;;;5.60;99.90;;;;;;5042746;28;20218;-58
2023/12/23 04:19:50;;;;;;;0.70;0.70;;;5.60;99.90;;;;;;5034553;28;20194;-57
2023/12/23 04:22:16;;;;;;;0.93;0.80;;;5.60;99.90;;;;;;5032904;28;20172;-57
2023/12/23 04:24:42;;;;;;;0.80;0.80;;;5.60;99.90;;;;;;5038147;28;20441;-57
2023/12/23 04:27:08;;;;;;;0.80;0.80;;;5.60;99.90;;;;;;5034068;28;20248;-59
2023/12/23 04:29:34;;;;;;;3.90;0.90;;;5.60;99.90;;;;;;5033612;28;20431;-56
2023/12/23 04:31:59;;;;;;;1.57;0.80;;;5.60;99.90;;;;;;5032569;28;20458;-58
2023/12/23 04:34:25;;;;;;;2.10;1.00;;;5.60;99.90;;;;;;5035654;28;20179;-58
2023/12/23 04:36:50;;;;;;;1.17;0.80;;;5.60;99.90;;;;;;5045410;28;20229;-58
2023/12/23 04:39:16;;;;;;;0.70;0.70;;;5.60;99.90;;;;;;5036088;28;20171;-56
2023/12/23 04:41:47;;;;;;;0.70;0.70;;;5.60;99.90;;;;;;5034843;28;20192;-58
2023/12/23 04:44:13;;;;;;;1.70;0.70;;;5.60;99.90;;;;;;5032182;28;20248;-58
2023/12/23 04:46:40;;;;;;;0.80;0.80;;;5.60;99.90;;;;;;5045068;28;20438;-59
2023/12/23 04:49:05;;;;;;;0.70;0.70;;;5.60;99.90;;;;;;5041349;28;20424;-58
2023/12/23 04:51:31;;;;;;;0.80;0.80;;;5.60;99.90;;;;;;5031737;28;20470;-58
2023/12/23 04:53:56;;;;;;;1.80;0.70;;;5.60;99.90;;;;;;5029796;28;20172;-58
2023/12/23 04:56:22;;;;;;;0.83;0.80;;;5.60;99.90;;;;;;5034765;28;20268;-58
2023/12/23 04:58:48;;;;;;;0.70;0.70;;;5.60;99.90;;;;;;5039383;28;20179;-57
2023/12/23 05:01:13;;;;;;;3.23;0.90;;;5.60;99.90;;;;;;5037929;28;20708;-58
2023/12/23 05:03:40;;;;;;;0.90;0.90;;;5.60;99.90;;;;;;5037958;28;20191;-58
2023/12/23 05:06:06;;;;;;;0.70;0.70;;;5.60;99.90;;;;;;5029549;28;20278;-57
2023/12/23 05:08:32;;;;;;;1.27;0.70;;;5.60;99.90;;;;;;5038784;28;20450;-58
2023/12/23 05:10:59;;;;;;;0.80;0.80;;;5.60;99.90;;;;;;5035858;28;20548;-58
2023/12/23 05:13:24;;;;;;;1.00;1.00;;;5.60;99.90;;;;;;5046344;28;20472;-58
2023/12/23 05:15:50;;;;;;;0.70;0.70;;;5.60;99.90;;;;;;5031667;28;20466;-58
2023/12/23 05:18:16;;;;;;;0.70;0.70;;;5.60;99.90;;;;;;5033700;28;20286;-58
2023/12/23 05:20:42;;;;;;;2.10;0.90;;;5.60;99.90;;;;;;5040573;28;20484;-58
2023/12/23 05:23:07;;;;;;;1.00;0.90;;;5.60;99.90;;;;;;5039325;28;20192;-58
2023/12/23 05:25:33;;;;;;;0.70;0.70;;;5.60;99.90;;;;;;5031743;28;20187;-57
2023/12/23 05:27:58;;;;;;;0.80;0.80;;;5.50;99.90;;;;;;5039651;28;21763;-58
2023/12/23 05:30:24;;;;;;;0.80;0.80;;;5.60;99.90;;;;;;5035278;28;20557;-58
2023/12/23 05:32:50;;;;;;;0.80;0.80;;;5.50;99.90;;;;;;5038003;28;20196;-58
2023/12/23 05:35:15;;;;;;;0.80;0.80;;;5.50;99.90;;;;;;5032234;28;20176;-58
2023/12/23 05:37:41;;;;;;;0.70;0.70;;;5.50;99.90;;;;;;5040231;28;20210;-58
2023/12/23 05:40:07;;;;;;;1.27;0.80;;;5.50;99.90;;;;;;5028494;28;20188;-58
2023/12/23 05:42:33;;;;;;;0.70;0.70;;;5.50;99.90;;;;;;5038075;28;20184;-57
2023/12/23 05:44:58;;;;;;;0.77;0.70;;;5.50;99.90;;;;;;5029434;28;20442;-58
2023/12/23 05:47:24;;;;;;;0.70;0.70;;;5.50;99.90;;;;;;5039652;28;20214;-58
2023/12/23 05:49:50;;;;;;;0.80;0.80;;;5.50;99.90;;;;;;5031152;28;20728;-58
2023/12/23 05:52:15;;;;;;;0.70;0.70;;;5.50;99.90;;;;;;5029742;28;20187;-57
2023/12/23 05:54:41;;;;;;;0.77;0.77;;;5.50;99.90;;;;;;5029437;28;20192;-59
2023/12/23 05:57:06;;;;;;;3.07;0.90;;;5.50;99.90;;;;;;5038503;28;20199;-59
2023/12/23 05:59:32;;;;;;;2.80;0.70;;;5.50;99.90;;;;;;5034683;28;20229;-57
2023/12/23 06:01:58;;;;;;;0.80;0.80;;;5.50;99.90;;;;;;5036426;28;20183;-58
2023/12/23 06:04:23;;;;;;;0.70;0.70;;;5.50;99.90;;;;;;5037605;28;20288;-58
2023/12/23 06:06:49;;;;;;;1.67;1.57;;;5.50;99.90;;;;;;5031910;28;20211;-57
2023/12/23 06:09:15;;;;;;;0.80;0.80;;;5.50;99.90;;;;;;5044502;28;20175;-58
2023/12/23 06:11:40;;;;;;;0.80;0.80;;;5.50;99.90;;;;;;5035274;28;20212;-58
2023/12/23 06:14:06;;;;;;;0.70;0.70;;;5.50;99.90;;;;;;5033099;28;20203;-58
2023/12/23 06:16:40;;;;;;;0.90;0.90;;;5.50;99.90;;;;;;5032271;28;20594;-58
2023/12/23 06:19:06;;;;;;;0.80;0.80;;;5.50;99.90;;;;;;5030079;28;20476;-58
2023/12/23 06:21:32;;;;;;;0.80;0.80;;;5.50;99.90;;;;;;5035731;28;20516;-58
2023/12/23 06:23:58;;;;;;;0.80;0.80;;;5.50;99.90;;;;;;5026633;28;21129;-56
2023/12/23 06:26:24;;;;;;;0.80;0.80;;;5.60;99.90;;;;;;5037117;28;20884;-56
2023/12/23 06:28:50;;;;;;;0.90;0.90;;;5.60;99.90;;;;;;5035920;28;20468;-56
2023/12/23 06:31:15;;;;;;;1.20;0.90;;;5.60;99.90;;;;;;5032449;28;21142;-57
2023/12/23 06:33:41;;;;;;;0.87;0.87;;;5.60;99.90;;;;;;5025654;28;20258;-57
2023/12/23 06:36:08;;;;;;;0.70;0.70;;;5.60;99.90;;;;;;5030856;28;20207;-59
2023/12/23 06:38:34;;;;;;;0.90;0.90;;;5.60;99.90;;;;;;5030467;28;20175;-57
2023/12/23 06:41:00;;;;;;;0.90;0.90;;;5.60;99.90;;;;;;5032258;28;20434;-59
2023/12/23 06:43:26;;;;;;;0.80;0.80;;;5.60;99.90;;;;;;5035630;28;20478;-59
2023/12/23 06:45:51;;;;;;;1.53;0.73;;;5.60;99.90;;;;;;5031925;28;20810;-59
2023/12/23 06:48:17;;;;;;;0.87;0.87;;;5.60;99.90;;;;;;5027762;28;20184;-59
2023/12/23 06:50:42;;;;;;;0.70;0.70;;;5.60;99.90;;;;;;5039226;28;20215;-60
2023/12/23 06:53:08;;;;;;;0.80;0.80;;;5.60;99.90;;;;;;5037522;28;20180;-59
2023/12/23 06:55:34;;;;;;;0.80;0.80;;;5.60;99.90;;;;;;5032539;28;20176;-59
2023/12/23 06:58:00;;;;;;;0.80;0.80;;;5.60;99.90;;;;;;5039933;28;20492;-58
2023/12/23 07:00:26;;;;;;;0.80;0.80;;;5.60;99.90;;;;;;5033395;28;20434;-59
2023/12/23 07:02:52;;;;;;;2.07;1.30;;;5.50;99.90;;;;;;5042115;28;20186;-58
2023/12/23 07:05:18;;;;;;;1.13;0.83;;;5.50;99.90;;;;;;5038662;28;20186;-59
2023/12/23 07:07:44;;;;;;;0.90;0.90;;;5.50;99.90;;;;;;5026985;28;20298;-58
2023/12/23 07:10:10;;;;;;;1.00;0.90;;;5.50;99.90;;;;;;5033148;28;20472;-58
2023/12/23 07:12:36;;;;;;;0.97;0.87;;;5.50;99.90;;;;;;5043479;28;20982;-58
2023/12/23 07:15:06;;;;;;;1.60;1.40;;;5.50;99.90;;;;;;5034916;28;20429;-57
2023/12/23 07:17:32;;;;;;;1.10;1.00;;;5.50;99.90;;;;;;5047236;28;20205;-60
2023/12/23 07:19:57;;;;;;;1.03;0.97;;;5.50;99.90;;;;;;5036755;28;20443;-60
2023/12/23 07:22:23;;;;;;;1.00;0.90;;;5.50;99.90;;;;;;5044024;28;20286;-59
2023/12/23 07:24:48;;;;;;;0.80;0.80;;;5.60;99.90;;;;;;5037077;28;20180;-57
2023/12/23 07:27:14;;;;;;;1.70;1.23;;;5.60;99.90;;;;;;5035228;28;20706;-60
2023/12/23 07:29:40;;;;;;;0.97;0.80;;;5.60;99.90;;;;;;5031980;28;20212;-60
2023/12/23 07:32:06;;;;;;;0.90;0.90;;;5.60;99.90;;;;;;5036149;28;20692;-58
2023/12/23 07:34:32;;;;;;;0.90;0.90;;;5.60;99.90;;;;;;5032681;28;20176;-57
2023/12/23 07:36:57;;;;;;;0.90;0.80;;;5.70;99.90;;;;;;5035268;28;20452;-59
2023/12/23 07:39:23;;;;;;;1.07;0.90;;;5.70;99.90;;;;;;5028982;28;20270;-59
2023/12/23 07:41:49;;;;;;;1.17;0.93;;;5.70;99.90;;;;;;5036375;28;20245;-58
2023/12/23 07:44:14;;;;;;;0.70;0.70;;;5.70;99.90;;;;;;5029314;28;20199;-59
2023/12/23 07:46:40;;;;;;;1.20;0.80;;;5.70;99.90;;;;;;5033289;28;20207;-59
2023/12/23 07:49:05;;;;;;;2.47;1.60;;;5.70;99.90;;;;;;5030102;28;20210;-59
2023/12/23 07:51:31;;;;;;;1.20;1.10;;;5.70;99.90;;;;;;5033896;28;20662;-58
2023/12/23 07:53:56;;;;;;;0.90;0.90;;;5.70;99.90;;;;;;5032807;28;20176;-59
2023/12/23 07:56:24;;;;;;;1.00;1.00;;;5.80;99.90;;;;;;5033811;28;20875;-58
2023/12/23 07:58:50;;;;;;;0.90;0.90;;;5.80;99.90;;;;;;5035422;28;20303;-59
2023/12/23 08:01:15;;;;;;;1.23;1.00;;;5.80;99.90;;;;;;5034874;28;20533;-59
2023/12/23 08:03:41;;;;;;;0.80;0.80;;;5.80;99.90;;;;;;5022795;28;20186;-59
2023/12/23 08:06:06;;;;;;;1.43;1.17;;;5.80;99.90;;;;;;5032000;28;20249;-59
2023/12/23 08:08:32;;;;;;;2.13;1.10;;;5.80;99.90;;;;;;5042644;28;20295;-58
2023/12/23 08:10:58;;;;;;;1.50;1.20;;;5.80;99.90;;;;;;5031740;28;20246;-59
2023/12/23 08:13:23;;;;;;;1.10;1.00;;;5.80;99.90;;;;;;5034587;28;20202;-59
2023/12/23 08:15:49;;;;;;;1.67;1.10;;;5.80;99.90;;;;;;5030389;28;20188;-59
2023/12/23 08:18:17;;;;;;;0.90;0.90;;;5.90;99.90;;;;;;5032011;28;20176;-58
2023/12/23 08:20:43;;;;;;;1.10;0.93;;;5.90;99.90;;;;;;5033237;28;20334;-57
2023/12/23 08:23:09;;;;;;;1.20;0.87;;;5.90;99.90;;;;;;5035762;28;20917;-57
2023/12/23 08:25:34;;;;;;;1.57;1.47;;;5.90;99.90;;;;;;5031872;28;20427;-58
2023/12/23 08:28:00;;;;;;;1.13;1.13;;;5.90;99.90;;;;;;5032362;28;20263;-57
2023/12/23 08:30:25;;;;;;;0.97;0.90;;;5.90;99.90;;;;;;5033872;28;20206;-57
2023/12/23 08:32:51;;;;;;;1.00;0.97;;;5.90;99.90;;;;;;5035040;28;20187;-57
2023/12/23 08:35:17;;;;;;;0.90;0.90;;;5.90;99.90;;;;;;5032185;28;20183;-56
2023/12/23 08:37:42;;;;;;;0.90;0.90;;;5.90;99.90;;;;;;5035915;28;20204;-57
2023/12/23 08:40:09;;;;;;;1.63;1.00;;;5.90;99.90;;;;;;5035584;28;20293;-61
2023/12/23 08:42:35;;;;;;;1.23;1.07;;;5.90;99.90;;;;;;5029698;28;20705;-58
2023/12/23 08:45:00;;;;;;;0.90;0.90;;;5.90;99.90;;;;;;5037915;28;20426;-60
2023/12/23 08:47:26;;;;;;;1.07;1.00;;;5.90;99.90;;;;;;5030978;28;20223;-60
2023/12/23 08:49:51;;;;;;;1.00;0.90;;;5.90;99.90;;;;;;5035409;28;20184;-59
2023/12/23 08:52:17;;;;;;;0.90;0.90;;;5.90;99.90;;;;;;5033939;28;20207;-59
2023/12/23 08:54:43;;;;;;;1.13;1.00;;;5.90;99.90;;;;;;5033775;28;20322;-60
2023/12/23 08:57:09;;;;;;;1.00;1.00;;;5.90;99.90;;;;;;5035012;28;20354;-60
2023/12/23 08:59:34;;;;;;;1.00;1.00;;;5.90;99.90;;;;;;5028700;28;20317;-60
2023/12/23 09:02:02;;;;;;;2.20;1.30;;;6.00;99.90;;;;;;5052079;28;20195;-59
2023/12/23 09:04:29;;;;;;;2.60;1.40;;;6.00;99.90;;;;;;5033311;28;20241;-59
2023/12/23 09:06:57;;;;;;;1.40;1.10;;;6.00;99.90;;;;;;5036364;28;20612;-59
2023/12/23 09:09:23;;;;;;;0.90;0.90;;;6.00;99.90;;;;;;5033326;28;20443;-59
2023/12/23 09:11:48;;;;;;;1.10;1.00;;;6.00;99.90;;;;;;5036880;28;20839;-60
2023/12/23 09:14:15;;;;;;;1.00;1.00;;;6.00;99.90;;;;;;5037429;28;20560;-59
2023/12/23 09:16:40;;;;;;;1.10;0.80;;;6.00;99.90;;;;;;5033314;28;20199;-59
2023/12/23 09:19:06;;;;;;;0.83;0.83;;;6.10;99.90;;;;;;5034009;28;20427;-58
2023/12/23 09:21:32;;;;;;;1.17;0.90;;;6.10;99.90;;;;;;5036891;28;20549;-59
2023/12/23 09:23:58;;;;;;;0.90;0.90;;;6.10;99.90;;;;;;5021302;28;20434;-59
2023/12/23 09:26:24;;;;;;;1.07;0.80;;;6.10;99.90;;;;;;5033315;28;20283;-60
2023/12/23 09:28:50;;;;;;;1.10;1.00;;;6.10;99.90;;;;;;5031081;28;20225;-60
2023/12/23 09:31:16;;;;;;;1.10;1.00;;;6.10;99.90;;;;;;5034264;28;20449;-58
2023/12/23 09:33:42;;;;;;;1.00;0.97;;;6.10;99.90;;;;;;5037637;28;21050;-58
2023/12/23 09:36:07;;;;;;;1.07;1.07;;;6.20;99.90;;;;;;5034525;28;20210;-60
2023/12/23 09:38:33;;;;;;;1.77;1.20;;;6.20;99.90;;;;;;5040404;28;20285;-58
2023/12/23 09:40:58;;;;;;;3.83;1.20;;;6.20;99.90;;;;;;5030925;28;20274;-59
2023/12/23 09:43:24;;;;;;;1.17;1.07;;;6.20;99.90;;;;;;5029638;28;20187;-59
2023/12/23 09:45:51;;;;;;;1.53;1.10;;;6.20;99.90;;;;;;5036985;28;20191;-60
2023/12/23 09:48:17;;;;;;;0.70;0.70;;;6.20;99.90;;;;;;5032153;28;20199;-59
2023/12/23 09:50:44;;;;;;;0.83;0.83;;;6.20;99.90;;;;;;5026021;28;20445;-59
2023/12/23 09:53:13;;;;;;;1.30;0.87;;;6.20;99.90;;;;;;5027862;28;20441;-60
2023/12/23 09:55:39;;;;;;;1.70;1.60;;;6.20;99.90;;;;;;5017350;28;20534;-63
2023/12/23 09:58:05;;;;;;;2.13;0.90;;;6.20;99.90;;;;;;5025296;28;20850;-60
2023/12/23 10:00:32;;;;;;;1.73;1.47;;;6.20;99.90;;;;;;5031149;28;20522;-62
2023/12/23 10:02:57;;;;;;;6.47;1.57;;;6.20;99.90;;;;;;5020185;28;20433;-61
2023/12/23 10:05:26;;;;;;;1.53;1.43;;;6.30;99.90;;;;;;5032117;28;20494;-60
2023/12/23 10:07:57;;;;;;;1.33;1.23;;;6.30;99.90;;;;;;5032995;28;20267;-61
2023/12/23 10:10:26;;;;;;;1.87;1.53;;;6.30;99.90;;;;;;5036615;28;20980;-59
2023/12/23 10:12:53;;;;;;;3.43;2.10;;;6.30;99.90;;;;;;5032773;28;20517;-61
2023/12/23 10:15:19;;;;;;;1.63;1.53;;;6.30;99.90;;;;;;5031487;28;20477;-61
2023/12/23 10:17:45;;;;;;;1.20;1.10;;;6.30;99.90;;;;;;5030094;28;20450;-60
2023/12/23 10:20:13;;;;;;;1.57;1.00;;;6.30;99.90;;;;;;5030517;28;20452;-61
2023/12/23 10:22:45;;;;;;;1.20;1.10;;;6.30;99.90;;;;;;5031802;28;20175;-60
2023/12/23 10:25:11;;;;;;;1.13;0.80;;;6.30;99.90;;;;;;5032317;28;20823;-60
2023/12/23 10:27:40;;;;;;;0.80;0.80;;;6.30;99.90;;;;;;5026354;28;20468;-60
2023/12/23 10:30:08;;;;;;;1.57;1.03;;;6.30;99.90;;;;;;5033450;28;20436;-60
2023/12/23 10:32:36;;;;;;;0.80;0.80;;;6.30;99.90;;;;;;5034178;28;20462;-63
2023/12/23 10:35:04;;;;;;;3.13;0.90;;;6.30;99.90;;;;;;5029997;28;20444;-60
2023/12/23 10:37:32;;;;;;;0.80;0.80;;;6.40;99.90;;;;;;5030511;28;20687;-58
2023/12/23 10:40:12;;;;;;;1.00;0.90;;;6.40;99.90;;;;;;5025291;28;20480;-60
2023/12/23 10:42:41;;;;;;;0.80;0.80;;;6.40;99.90;;;;;;5034003;28;21209;-59
2023/12/23 10:45:07;;;;;;;1.53;0.90;;;6.40;99.90;;;;;;5027976;28;21034;-59
2023/12/23 10:47:34;;;;;;;1.23;0.90;;;6.40;99.90;;;;;;5038338;28;20458;-59
2023/12/23 10:50:01;;;;;;;1.20;1.10;;;6.40;99.90;;;;;;5043745;28;21100;-59
2023/12/23 10:52:26;;;;;;;1.00;1.00;;;6.40;99.90;;;;;;5037772;28;20993;-60
2023/12/23 10:54:52;;;;;;;1.00;1.00;;;6.40;99.90;;;;;;5043144;28;20450;-59
2023/12/23 10:57:20;;;;;;;0.90;0.90;;;6.40;99.90;;;;;;5032060;28;20207;-59
2023/12/23 10:59:46;;;;;;;0.90;0.90;;;6.40;99.90;;;;;;5033054;28;20218;-59
2023/12/23 11:02:14;;;;;;;1.20;1.10;;;6.40;99.90;;;;;;5039867;28;20457;-60
2023/12/23 11:04:43;;;;;;;1.10;1.00;;;6.40;99.90;;;;;;5036167;28;20176;-60
2023/12/23 11:07:11;;;;;;;1.37;1.10;;;6.40;99.90;;;;;;5041061;28;20978;-59
2023/12/23 11:09:37;;;;;;;0.80;0.80;;;6.40;99.90;;;;;;5033041;28;20521;-59
2023/12/23 11:12:03;;;;;;;1.20;1.10;;;6.40;99.90;;;;;;5036309;28;20462;-59
2023/12/23 11:14:29;;;;;;;0.97;0.93;;;6.40;99.90;;;;;;5033867;28;20420;-59
2023/12/23 11:16:58;;;;;;;1.00;0.80;;;6.40;99.90;;;;;;5030779;28;20458;-60
2023/12/23 11:19:25;;;;;;;0.83;0.83;;;6.40;99.90;;;;;;5031706;28;20434;-59
2023/12/23 11:22:25;;;;;;;1.00;1.00;;;6.40;99.90;;;;;;5036428;28;20426;-60
2023/12/23 11:24:51;;;;;;;1.10;1.10;;;6.40;99.90;;;;;;5037367;28;20410;-60
2023/12/23 11:27:33;;;;;;;2.37;1.20;;;6.40;99.90;;;;;;5030497;28;20964;-60
2023/12/23 11:30:08;;;;;;;1.27;1.17;;;6.40;99.90;;;;;;5037366;28;20433;-60
2023/12/23 11:32:37;;;;;;;1.63;1.10;;;6.40;99.90;;;;;;5031508;28;20447;-60
2023/12/23 11:35:12;;;;;;;0.93;0.93;;;6.40;99.90;;;;;;5031543;28;20547;-61
2023/12/23 11:37:55;;;;;;;1.13;1.03;;;6.40;99.90;;;;;;5039748;28;20528;-60
2023/12/23 11:40:22;;;;;;;1.40;1.30;;;6.40;99.90;;;;;;5034305;28;20434;-60
2023/12/23 11:42:49;;;;;;;0.87;0.87;;;6.40;99.90;;;;;;5047865;28;20434;-60
2023/12/23 11:45:15;;;;;;;1.20;1.10;;;6.40;99.90;;;;;;5033635;28;20501;-59
2023/12/23 11:47:41;;;;;;;1.00;1.00;;;6.40;99.90;;;;;;5040103;28;20457;-59
2023/12/23 11:50:08;;;;;;;0.90;0.90;;;6.40;99.90;;;;;;5035411;28;20417;-60
2023/12/23 11:52:35;;;;;;;2.97;1.37;;;6.40;99.90;;;;;;5041755;28;20492;-59
2023/12/23 11:55:01;;;;;;;1.30;1.20;;;6.40;99.90;;;;;;5043500;28;20823;-59
2023/12/23 11:57:27;;;;;;;1.33;1.30;;;6.40;99.90;;;;;;5033244;28;20437;-60
2023/12/23 11:59:54;;;;;;;1.00;1.00;;;6.50;99.90;;;;;;5035417;28;20453;-60
2023/12/23 12:02:20;;;;;;;1.40;1.30;;;6.50;99.90;;;;;;5038290;28;20421;-61
2023/12/23 12:04:46;;;;;;;2.13;1.87;;;6.50;99.90;;;;;;5040067;28;20422;-59
2023/12/23 12:07:12;;;;;;;0.90;0.90;;;6.50;99.90;;;;;;5042246;28;20697;-61
2023/12/23 12:09:37;;;;;;;1.53;0.90;;;6.50;99.90;;;;;;5037979;28;20176;-60
2023/12/23 12:12:04;;;;;;;1.10;1.00;;;6.50;99.90;;;;;;5032643;28;20544;-61
2023/12/23 12:14:30;;;;;;;1.17;1.10;;;6.50;99.90;;;;;;5030955;28;20612;-62
2023/12/23 12:16:56;;;;;;;1.33;0.90;;;6.50;99.90;;;;;;5039232;28;20425;-60
2023/12/23 12:19:21;;;;;;;2.17;1.50;;;6.50;99.90;;;;;;5042207;28;20414;-59
2023/12/23 12:21:47;;;;;;;2.70;1.57;;;6.50;99.90;;;;;;5040693;28;21088;-60
2023/12/23 12:24:13;;;;;;;1.00;0.90;;;6.50;99.90;;;;;;5035233;28;20203;-59
2023/12/23 12:26:39;;;;;;;1.33;1.10;;;6.50;99.90;;;;;;5035442;28;20203;-60
2023/12/23 12:29:05;;;;;;;0.90;0.90;;;6.50;99.90;;;;;;5036101;28;20430;-60
2023/12/23 12:31:31;;;;;;;1.20;1.10;;;6.40;99.90;;;;;;5039398;28;20461;-59
2023/12/23 12:34:00;;;;;;;0.90;0.90;;;6.40;99.90;;;;;;5039216;28;20290;-60
2023/12/23 12:36:26;;;;;;;1.30;1.20;;;6.40;99.90;;;;;;5038685;28;20454;-60
2023/12/23 12:38:53;;;;;;;1.50;1.20;;;6.40;99.90;;;;;;5041683;28;20422;-59
2023/12/23 12:41:18;;;;;;;2.50;1.17;;;6.40;99.90;;;;;;5037347;28;20522;-59
2023/12/23 12:43:44;;;;;;;1.40;1.30;;;6.30;99.90;;;;;;5033618;28;20438;-60
2023/12/23 12:46:14;;;;;;;0.93;0.90;;;6.30;99.90;;;;;;5032567;28;20206;-59
2023/12/23 12:48:40;;;;;;;1.43;1.10;;;6.30;99.90;;;;;;5030691;28;20191;-59
2023/12/23 12:51:06;;;;;;;1.37;1.17;;;6.30;99.90;;;;;;5031952;28;21004;-59
2023/12/23 12:53:32;;;;;;;1.10;1.00;;;6.30;99.90;;;;;;5041666;28;20179;-59